sensor_id;sensor_type;location;lat;lon;timestamp;P1;durP1;ratioP1;P2;durP2;ratioP2
71806;SDS011;59655;42.590;23.364;2023-07-20T00:01:14;14.95;;;4.28;;
71806;SDS011;59655;42.590;23.364;2023-07-20T00:03:40;12.40;;;4.45;;
71806;SDS011;59655;42.590;23.364;2023-07-20T00:06:05;13.18;;;4.65;;
71806;SDS011;59655;42.590;23.364;2023-07-20T00:08:31;13.18;;;5.18;;
71806;SDS011;59655;42.590;23.364;2023-07-20T00:10:56;10.35;;;5.30;;
71806;SDS011;59655;42.590;23.364;2023-07-20T00:13:21;9.52;;;5.55;;
71806;SDS011;59655;42.590;23.364;2023-07-20T00:15:47;13.05;;;5.68;;
71806;SDS011;59655;42.590;23.364;2023-07-20T00:18:12;12.05;;;5.88;;
71806;SDS011;59655;42.590;23.364;2023-07-20T00:20:38;14.32;;;5.78;;
71806;SDS011;59655;42.590;23.364;2023-07-20T00:23:04;15.00;;;6.20;;
71806;SDS011;59655;42.590;23.364;2023-07-20T00:25:30;16.17;;;6.22;;
71806;SDS011;59655;42.590;23.364;2023-07-20T00:27:55;15.02;;;5.88;;
71806;SDS011;59655;42.590;23.364;2023-07-20T00:30:21;18.15;;;6.50;;
71806;SDS011;59655;42.590;23.364;2023-07-20T00:32:48;14.15;;;6.05;;
71806;SDS011;59655;42.590;23.364;2023-07-20T00:35:13;13.52;;;5.90;;
71806;SDS011;59655;42.590;23.364;2023-07-20T00:37:39;16.02;;;6.60;;
71806;SDS011;59655;42.590;23.364;2023-07-20T00:40:05;16.05;;;6.43;;
71806;SDS011;59655;42.590;23.364;2023-07-20T00:42:34;16.98;;;6.47;;
71806;SDS011;59655;42.590;23.364;2023-07-20T00:45:00;18.90;;;7.00;;
71806;SDS011;59655;42.590;23.364;2023-07-20T00:47:26;18.00;;;7.18;;
71806;SDS011;59655;42.590;23.364;2023-07-20T00:49:52;16.45;;;8.07;;
71806;SDS011;59655;42.590;23.364;2023-07-20T00:52:17;16.13;;;7.50;;
71806;SDS011;59655;42.590;23.364;2023-07-20T00:57:12;16.58;;;6.65;;
71806;SDS011;59655;42.590;23.364;2023-07-20T00:59:39;19.77;;;7.43;;
71806;SDS011;59655;42.590;23.364;2023-07-20T01:02:05;18.48;;;7.55;;
71806;SDS011;59655;42.590;23.364;2023-07-20T01:04:30;15.57;;;5.80;;
71806;SDS011;59655;42.590;23.364;2023-07-20T01:09:48;23.25;;;6.65;;
71806;SDS011;59655;42.590;23.364;2023-07-20T01:13:14;18.75;;;6.45;;
71806;SDS011;59655;42.590;23.364;2023-07-20T01:15:18;19.92;;;6.10;;
71806;SDS011;59655;42.590;23.364;2023-07-20T01:17:44;31.30;;;6.72;;
71806;SDS011;59655;42.590;23.364;2023-07-20T01:20:10;17.35;;;5.20;;
71806;SDS011;59655;42.590;23.364;2023-07-20T01:31:17;27.77;;;6.63;;
71806;SDS011;59655;42.590;23.364;2023-07-20T01:33:47;19.10;;;6.38;;
71806;SDS011;59655;42.590;23.364;2023-07-20T01:36:16;20.60;;;6.55;;
71806;SDS011;59655;42.590;23.364;2023-07-20T01:38:43;16.50;;;7.38;;
71806;SDS011;59655;42.590;23.364;2023-07-20T01:41:10;22.20;;;7.05;;
71806;SDS011;59655;42.590;23.364;2023-07-20T01:46:04;24.48;;;7.55;;
71806;SDS011;59655;42.590;23.364;2023-07-20T01:48:29;17.48;;;7.53;;
71806;SDS011;59655;42.590;23.364;2023-07-20T01:50:56;25.83;;;7.63;;
71806;SDS011;59655;42.590;23.364;2023-07-20T01:53:22;23.42;;;8.45;;
71806;SDS011;59655;42.590;23.364;2023-07-20T01:55:47;30.33;;;8.10;;
71806;SDS011;59655;42.590;23.364;2023-07-20T01:58:13;22.70;;;7.22;;
71806;SDS011;59655;42.590;23.364;2023-07-20T02:00:38;22.75;;;7.35;;
71806;SDS011;59655;42.590;23.364;2023-07-20T02:03:04;25.48;;;7.60;;
71806;SDS011;59655;42.590;23.364;2023-07-20T02:05:29;20.80;;;7.63;;
71806;SDS011;59655;42.590;23.364;2023-07-20T02:07:55;23.30;;;7.15;;
71806;SDS011;59655;42.590;23.364;2023-07-20T02:10:20;29.30;;;7.60;;
71806;SDS011;59655;42.590;23.364;2023-07-20T02:12:46;23.92;;;7.78;;
71806;SDS011;59655;42.590;23.364;2023-07-20T02:15:12;21.65;;;6.57;;
71806;SDS011;59655;42.590;23.364;2023-07-20T02:17:38;22.50;;;6.90;;
71806;SDS011;59655;42.590;23.364;2023-07-20T02:20:06;32.38;;;8.20;;
71806;SDS011;59655;42.590;23.364;2023-07-20T02:22:34;19.77;;;6.78;;
71806;SDS011;59655;42.590;23.364;2023-07-20T02:24:59;22.65;;;7.20;;
71806;SDS011;59655;42.590;23.364;2023-07-20T02:27:25;26.15;;;7.55;;
71806;SDS011;59655;42.590;23.364;2023-07-20T02:29:50;17.88;;;6.43;;
71806;SDS011;59655;42.590;23.364;2023-07-20T02:32:15;25.10;;;6.47;;
71806;SDS011;59655;42.590;23.364;2023-07-20T02:34:41;22.70;;;6.53;;
71806;SDS011;59655;42.590;23.364;2023-07-20T02:37:06;23.33;;;6.00;;
71806;SDS011;59655;42.590;23.364;2023-07-20T02:39:32;16.90;;;5.07;;
71806;SDS011;59655;42.590;23.364;2023-07-20T02:41:57;16.08;;;5.47;;
71806;SDS011;59655;42.590;23.364;2023-07-20T02:44:22;20.00;;;5.18;;
71806;SDS011;59655;42.590;23.364;2023-07-20T02:46:48;21.55;;;5.97;;
71806;SDS011;59655;42.590;23.364;2023-07-20T02:49:14;22.10;;;6.03;;
71806;SDS011;59655;42.590;23.364;2023-07-20T02:51:40;23.38;;;6.15;;
71806;SDS011;59655;42.590;23.364;2023-07-20T02:54:06;20.67;;;6.35;;
71806;SDS011;59655;42.590;23.364;2023-07-20T02:56:31;22.02;;;5.88;;
71806;SDS011;59655;42.590;23.364;2023-07-20T02:58:57;17.05;;;5.45;;
71806;SDS011;59655;42.590;23.364;2023-07-20T03:01:22;25.83;;;6.45;;
71806;SDS011;59655;42.590;23.364;2023-07-20T03:03:48;20.35;;;6.03;;
71806;SDS011;59655;42.590;23.364;2023-07-20T03:06:13;20.67;;;6.28;;
71806;SDS011;59655;42.590;23.364;2023-07-20T03:08:40;22.10;;;6.38;;
71806;SDS011;59655;42.590;23.364;2023-07-20T03:11:06;21.67;;;6.18;;
71806;SDS011;59655;42.590;23.364;2023-07-20T03:13:32;22.23;;;5.93;;
71806;SDS011;59655;42.590;23.364;2023-07-20T03:15:58;22.80;;;5.10;;
71806;SDS011;59655;42.590;23.364;2023-07-20T03:18:23;24.75;;;5.72;;
71806;SDS011;59655;42.590;23.364;2023-07-20T03:20:49;23.27;;;5.45;;
71806;SDS011;59655;42.590;23.364;2023-07-20T03:23:14;25.92;;;5.60;;
71806;SDS011;59655;42.590;23.364;2023-07-20T03:25:40;23.00;;;6.00;;
71806;SDS011;59655;42.590;23.364;2023-07-20T03:28:06;18.02;;;5.60;;
71806;SDS011;59655;42.590;23.364;2023-07-20T03:30:31;28.85;;;7.80;;
71806;SDS011;59655;42.590;23.364;2023-07-20T03:32:57;24.48;;;7.15;;
71806;SDS011;59655;42.590;23.364;2023-07-20T03:35:22;25.98;;;7.20;;
71806;SDS011;59655;42.590;23.364;2023-07-20T03:37:48;21.25;;;6.57;;
71806;SDS011;59655;42.590;23.364;2023-07-20T03:40:13;20.38;;;6.18;;
71806;SDS011;59655;42.590;23.364;2023-07-20T03:42:39;22.30;;;7.13;;
71806;SDS011;59655;42.590;23.364;2023-07-20T03:45:05;19.58;;;6.40;;
71806;SDS011;59655;42.590;23.364;2023-07-20T03:47:31;25.17;;;6.85;;
71806;SDS011;59655;42.590;23.364;2023-07-20T03:49:57;17.88;;;5.32;;
71806;SDS011;59655;42.590;23.364;2023-07-20T03:52:22;23.52;;;6.15;;
71806;SDS011;59655;42.590;23.364;2023-07-20T03:54:48;19.38;;;6.55;;
71806;SDS011;59655;42.590;23.364;2023-07-20T03:57:16;25.27;;;6.28;;
71806;SDS011;59655;42.590;23.364;2023-07-20T03:59:44;22.27;;;7.05;;
71806;SDS011;59655;42.590;23.364;2023-07-20T04:02:10;19.73;;;6.15;;
71806;SDS011;59655;42.590;23.364;2023-07-20T04:04:36;14.43;;;5.28;;
71806;SDS011;59655;42.590;23.364;2023-07-20T04:07:01;21.40;;;5.95;;
71806;SDS011;59655;42.590;23.364;2023-07-20T04:09:26;22.33;;;8.00;;
71806;SDS011;59655;42.590;23.364;2023-07-20T04:11:52;25.75;;;7.30;;
71806;SDS011;59655;42.590;23.364;2023-07-20T04:14:17;23.08;;;7.25;;
71806;SDS011;59655;42.590;23.364;2023-07-20T04:16:43;31.27;;;13.73;;
71806;SDS011;59655;42.590;23.364;2023-07-20T04:19:08;32.55;;;14.02;;
71806;SDS011;59655;42.590;23.364;2023-07-20T04:21:39;31.95;;;11.85;;
71806;SDS011;59655;42.590;23.364;2023-07-20T04:24:06;33.42;;;11.23;;
71806;SDS011;59655;42.590;23.364;2023-07-20T04:26:31;32.38;;;10.45;;
71806;SDS011;59655;42.590;23.364;2023-07-20T04:28:57;30.45;;;9.38;;
71806;SDS011;59655;42.590;23.364;2023-07-20T04:31:24;30.20;;;9.05;;
71806;SDS011;59655;42.590;23.364;2023-07-20T04:33:49;27.42;;;7.45;;
71806;SDS011;59655;42.590;23.364;2023-07-20T04:36:15;14.88;;;6.70;;
71806;SDS011;59655;42.590;23.364;2023-07-20T04:38:44;23.55;;;7.30;;
71806;SDS011;59655;42.590;23.364;2023-07-20T04:41:12;19.98;;;7.40;;
71806;SDS011;59655;42.590;23.364;2023-07-20T04:43:41;26.85;;;7.90;;
71806;SDS011;59655;42.590;23.364;2023-07-20T04:46:08;25.65;;;8.13;;
71806;SDS011;59655;42.590;23.364;2023-07-20T04:48:34;25.00;;;8.43;;
71806;SDS011;59655;42.590;23.364;2023-07-20T04:50:59;25.52;;;9.10;;
71806;SDS011;59655;42.590;23.364;2023-07-20T04:53:24;21.30;;;7.93;;
71806;SDS011;59655;42.590;23.364;2023-07-20T04:55:50;21.75;;;7.32;;
71806;SDS011;59655;42.590;23.364;2023-07-20T04:58:16;21.58;;;7.53;;
71806;SDS011;59655;42.590;23.364;2023-07-20T05:00:43;22.67;;;7.38;;
71806;SDS011;59655;42.590;23.364;2023-07-20T05:03:08;25.67;;;8.70;;
71806;SDS011;59655;42.590;23.364;2023-07-20T05:05:34;23.95;;;7.47;;
71806;SDS011;59655;42.590;23.364;2023-07-20T05:07:59;27.08;;;9.18;;
71806;SDS011;59655;42.590;23.364;2023-07-20T05:10:25;23.38;;;7.72;;
71806;SDS011;59655;42.590;23.364;2023-07-20T05:12:50;24.58;;;7.70;;
71806;SDS011;59655;42.590;23.364;2023-07-20T05:15:15;21.25;;;7.50;;
71806;SDS011;59655;42.590;23.364;2023-07-20T05:17:41;21.55;;;7.47;;
71806;SDS011;59655;42.590;23.364;2023-07-20T05:20:07;19.42;;;8.23;;
71806;SDS011;59655;42.590;23.364;2023-07-20T05:22:35;24.27;;;9.82;;
71806;SDS011;59655;42.590;23.364;2023-07-20T05:25:01;28.00;;;10.88;;
71806;SDS011;59655;42.590;23.364;2023-07-20T05:27:26;28.77;;;10.38;;
71806;SDS011;59655;42.590;23.364;2023-07-20T05:29:52;23.23;;;10.45;;
71806;SDS011;59655;42.590;23.364;2023-07-20T05:32:17;20.50;;;8.93;;
71806;SDS011;59655;42.590;23.364;2023-07-20T05:34:44;20.50;;;9.43;;
71806;SDS011;59655;42.590;23.364;2023-07-20T05:37:09;29.15;;;10.23;;
71806;SDS011;59655;42.590;23.364;2023-07-20T05:39:36;29.45;;;11.07;;
71806;SDS011;59655;42.590;23.364;2023-07-20T05:42:01;29.67;;;10.32;;
71806;SDS011;59655;42.590;23.364;2023-07-20T05:44:27;30.83;;;11.15;;
71806;SDS011;59655;42.590;23.364;2023-07-20T05:46:52;31.58;;;10.02;;
71806;SDS011;59655;42.590;23.364;2023-07-20T05:49:17;29.17;;;10.48;;
71806;SDS011;59655;42.590;23.364;2023-07-20T05:51:43;25.15;;;9.68;;
71806;SDS011;59655;42.590;23.364;2023-07-20T05:54:08;25.27;;;10.02;;
71806;SDS011;59655;42.590;23.364;2023-07-20T05:56:34;25.02;;;9.90;;
71806;SDS011;59655;42.590;23.364;2023-07-20T05:58:59;23.05;;;9.38;;
71806;SDS011;59655;42.590;23.364;2023-07-20T06:01:24;24.35;;;8.98;;
71806;SDS011;59655;42.590;23.364;2023-07-20T06:03:52;24.02;;;9.85;;
71806;SDS011;59655;42.590;23.364;2023-07-20T06:06:18;23.10;;;9.57;;
71806;SDS011;59655;42.590;23.364;2023-07-20T06:08:43;30.90;;;10.57;;
71806;SDS011;59655;42.590;23.364;2023-07-20T06:11:09;25.73;;;10.02;;
71806;SDS011;59655;42.590;23.364;2023-07-20T06:13:35;26.60;;;10.40;;
71806;SDS011;59655;42.590;23.364;2023-07-20T06:16:00;25.17;;;9.57;;
71806;SDS011;59655;42.590;23.364;2023-07-20T06:18:26;27.17;;;10.07;;
71806;SDS011;59655;42.590;23.364;2023-07-20T06:20:52;31.63;;;10.77;;
71806;SDS011;59655;42.590;23.364;2023-07-20T06:23:20;26.77;;;10.50;;
71806;SDS011;59655;42.590;23.364;2023-07-20T06:25:46;25.70;;;11.00;;
71806;SDS011;59655;42.590;23.364;2023-07-20T06:28:12;30.40;;;11.38;;
71806;SDS011;59655;42.590;23.364;2023-07-20T06:30:37;28.95;;;11.27;;
71806;SDS011;59655;42.590;23.364;2023-07-20T06:33:04;27.20;;;10.77;;
71806;SDS011;59655;42.590;23.364;2023-07-20T06:35:30;28.00;;;10.45;;
71806;SDS011;59655;42.590;23.364;2023-07-20T06:37:55;29.70;;;10.63;;
71806;SDS011;59655;42.590;23.364;2023-07-20T06:40:21;30.60;;;10.93;;
71806;SDS011;59655;42.590;23.364;2023-07-20T06:42:46;26.85;;;11.98;;
71806;SDS011;59655;42.590;23.364;2023-07-20T06:45:12;25.58;;;12.18;;
71806;SDS011;59655;42.590;23.364;2023-07-20T06:47:38;33.83;;;11.30;;
71806;SDS011;59655;42.590;23.364;2023-07-20T06:50:07;37.20;;;11.77;;
71806;SDS011;59655;42.590;23.364;2023-07-20T06:52:33;31.45;;;11.85;;
71806;SDS011;59655;42.590;23.364;2023-07-20T06:54:59;36.75;;;10.85;;
71806;SDS011;59655;42.590;23.364;2023-07-20T06:57:25;29.08;;;10.77;;
71806;SDS011;59655;42.590;23.364;2023-07-20T06:59:50;31.75;;;11.60;;
71806;SDS011;59655;42.590;23.364;2023-07-20T07:02:16;27.88;;;10.82;;
71806;SDS011;59655;42.590;23.364;2023-07-20T07:04:41;28.23;;;11.30;;
71806;SDS011;59655;42.590;23.364;2023-07-20T07:07:07;37.72;;;11.57;;
71806;SDS011;59655;42.590;23.364;2023-07-20T07:09:33;32.03;;;11.68;;
71806;SDS011;59655;42.590;23.364;2023-07-20T07:11:59;27.73;;;10.50;;
71806;SDS011;59655;42.590;23.364;2023-07-20T07:14:24;31.77;;;10.15;;
71806;SDS011;59655;42.590;23.364;2023-07-20T07:16:50;31.63;;;10.45;;
71806;SDS011;59655;42.590;23.364;2023-07-20T07:19:15;33.00;;;11.88;;
71806;SDS011;59655;42.590;23.364;2023-07-20T07:21:40;33.00;;;10.40;;
71806;SDS011;59655;42.590;23.364;2023-07-20T07:24:09;37.33;;;9.80;;
71806;SDS011;59655;42.590;23.364;2023-07-20T07:26:39;32.17;;;10.95;;
71806;SDS011;59655;42.590;23.364;2023-07-20T07:29:06;34.55;;;10.70;;
71806;SDS011;59655;42.590;23.364;2023-07-20T07:31:35;31.27;;;9.63;;
71806;SDS011;59655;42.590;23.364;2023-07-20T07:34:06;31.67;;;9.45;;
71806;SDS011;59655;42.590;23.364;2023-07-20T07:36:33;31.92;;;9.43;;
71806;SDS011;59655;42.590;23.364;2023-07-20T07:38:59;38.63;;;9.57;;
71806;SDS011;59655;42.590;23.364;2023-07-20T07:41:25;26.02;;;9.25;;
71806;SDS011;59655;42.590;23.364;2023-07-20T07:43:51;24.27;;;9.70;;
71806;SDS011;59655;42.590;23.364;2023-07-20T07:48:54;39.53;;;9.70;;
71806;SDS011;59655;42.590;23.364;2023-07-20T07:51:27;29.80;;;9.63;;
71806;SDS011;59655;42.590;23.364;2023-07-20T07:54:05;36.80;;;8.88;;
71806;SDS011;59655;42.590;23.364;2023-07-20T07:56:31;40.05;;;9.75;;
71806;SDS011;59655;42.590;23.364;2023-07-20T07:58:56;39.67;;;9.13;;
71806;SDS011;59655;42.590;23.364;2023-07-20T08:01:22;32.67;;;8.98;;
71806;SDS011;59655;42.590;23.364;2023-07-20T08:03:47;30.90;;;9.07;;
71806;SDS011;59655;42.590;23.364;2023-07-20T08:06:13;27.15;;;9.55;;
71806;SDS011;59655;42.590;23.364;2023-07-20T08:08:39;32.42;;;9.52;;
71806;SDS011;59655;42.590;23.364;2023-07-20T08:11:04;39.38;;;9.38;;
71806;SDS011;59655;42.590;23.364;2023-07-20T08:13:30;42.33;;;9.95;;
71806;SDS011;59655;42.590;23.364;2023-07-20T08:15:56;33.33;;;9.48;;
71806;SDS011;59655;42.590;23.364;2023-07-20T08:18:21;28.10;;;9.48;;
71806;SDS011;59655;42.590;23.364;2023-07-20T08:20:47;31.40;;;9.68;;
71806;SDS011;59655;42.590;23.364;2023-07-20T08:23:14;33.88;;;11.75;;
71806;SDS011;59655;42.590;23.364;2023-07-20T08:25:39;37.95;;;11.75;;
71806;SDS011;59655;42.590;23.364;2023-07-20T08:28:08;39.30;;;13.35;;
71806;SDS011;59655;42.590;23.364;2023-07-20T08:30:45;39.30;;;12.32;;
71806;SDS011;59655;42.590;23.364;2023-07-20T08:33:15;37.95;;;14.18;;
71806;SDS011;59655;42.590;23.364;2023-07-20T08:35:43;42.15;;;12.50;;
71806;SDS011;59655;42.590;23.364;2023-07-20T08:38:08;35.92;;;11.75;;
71806;SDS011;59655;42.590;23.364;2023-07-20T08:40:39;28.42;;;8.85;;
71806;SDS011;59655;42.590;23.364;2023-07-20T08:43:05;28.98;;;8.45;;
71806;SDS011;59655;42.590;23.364;2023-07-20T08:45:32;26.20;;;7.88;;
71806;SDS011;59655;42.590;23.364;2023-07-20T08:47:59;27.38;;;7.32;;
71806;SDS011;59655;42.590;23.364;2023-07-20T08:50:27;22.48;;;7.50;;
71806;SDS011;59655;42.590;23.364;2023-07-20T08:52:55;27.17;;;7.60;;
71806;SDS011;59655;42.590;23.364;2023-07-20T08:55:22;22.13;;;6.20;;
71806;SDS011;59655;42.590;23.364;2023-07-20T08:57:55;26.83;;;6.65;;
71806;SDS011;59655;42.590;23.364;2023-07-20T09:00:22;19.33;;;6.80;;
71806;SDS011;59655;42.590;23.364;2023-07-20T09:02:55;25.70;;;6.53;;
71806;SDS011;59655;42.590;23.364;2023-07-20T09:05:22;23.73;;;7.13;;
71806;SDS011;59655;42.590;23.364;2023-07-20T09:07:49;29.17;;;6.88;;
71806;SDS011;59655;42.590;23.364;2023-07-20T09:10:14;21.70;;;5.97;;
71806;SDS011;59655;42.590;23.364;2023-07-20T09:12:41;19.77;;;5.72;;
71806;SDS011;59655;42.590;23.364;2023-07-20T09:15:08;23.58;;;5.75;;
71806;SDS011;59655;42.590;23.364;2023-07-20T09:17:34;19.42;;;5.75;;
71806;SDS011;59655;42.590;23.364;2023-07-20T09:20:03;19.23;;;5.55;;
71806;SDS011;59655;42.590;23.364;2023-07-20T09:22:35;22.10;;;6.20;;
71806;SDS011;59655;42.590;23.364;2023-07-20T09:25:05;22.30;;;5.65;;
71806;SDS011;59655;42.590;23.364;2023-07-20T09:27:44;18.35;;;5.65;;
71806;SDS011;59655;42.590;23.364;2023-07-20T09:30:14;24.10;;;6.97;;
71806;SDS011;59655;42.590;23.364;2023-07-20T09:32:42;18.95;;;6.45;;
71806;SDS011;59655;42.590;23.364;2023-07-20T09:35:17;18.02;;;4.85;;
71806;SDS011;59655;42.590;23.364;2023-07-20T09:37:48;18.10;;;5.50;;
71806;SDS011;59655;42.590;23.364;2023-07-20T09:40:17;19.83;;;5.30;;
71806;SDS011;59655;42.590;23.364;2023-07-20T09:42:43;21.02;;;6.05;;
71806;SDS011;59655;42.590;23.364;2023-07-20T09:45:09;17.30;;;5.60;;
71806;SDS011;59655;42.590;23.364;2023-07-20T09:47:38;20.00;;;5.57;;
71806;SDS011;59655;42.590;23.364;2023-07-20T09:50:05;23.42;;;5.13;;
71806;SDS011;59655;42.590;23.364;2023-07-20T09:52:38;19.98;;;5.40;;
71806;SDS011;59655;42.590;23.364;2023-07-20T09:55:07;24.15;;;7.07;;
71806;SDS011;59655;42.590;23.364;2023-07-20T09:57:33;22.73;;;5.43;;
71806;SDS011;59655;42.590;23.364;2023-07-20T09:59:59;18.63;;;5.22;;
71806;SDS011;59655;42.590;23.364;2023-07-20T10:02:25;16.08;;;5.00;;
71806;SDS011;59655;42.590;23.364;2023-07-20T10:04:58;16.02;;;5.55;;
71806;SDS011;59655;42.590;23.364;2023-07-20T10:07:28;16.52;;;5.30;;
71806;SDS011;59655;42.590;23.364;2023-07-20T10:09:55;24.73;;;5.38;;
71806;SDS011;59655;42.590;23.364;2023-07-20T10:12:24;19.00;;;5.20;;
71806;SDS011;59655;42.590;23.364;2023-07-20T10:15:36;16.83;;;5.65;;
71806;SDS011;59655;42.590;23.364;2023-07-20T10:17:49;16.73;;;5.00;;
71806;SDS011;59655;42.590;23.364;2023-07-20T10:20:22;19.85;;;4.93;;
71806;SDS011;59655;42.590;23.364;2023-07-20T10:22:49;18.02;;;7.82;;
71806;SDS011;59655;42.590;23.364;2023-07-20T10:25:17;23.08;;;5.57;;
71806;SDS011;59655;42.590;23.364;2023-07-20T10:27:43;23.30;;;5.57;;
71806;SDS011;59655;42.590;23.364;2023-07-20T10:30:10;13.38;;;4.97;;
71806;SDS011;59655;42.590;23.364;2023-07-20T10:32:35;17.17;;;5.07;;
71806;SDS011;59655;42.590;23.364;2023-07-20T10:35:01;17.55;;;4.82;;
71806;SDS011;59655;42.590;23.364;2023-07-20T10:37:46;15.93;;;4.90;;
71806;SDS011;59655;42.590;23.364;2023-07-20T10:40:28;17.67;;;4.70;;
71806;SDS011;59655;42.590;23.364;2023-07-20T10:43:05;18.98;;;5.30;;
71806;SDS011;59655;42.590;23.364;2023-07-20T10:45:36;18.85;;;4.65;;
71806;SDS011;59655;42.590;23.364;2023-07-20T10:48:06;17.20;;;4.75;;
71806;SDS011;59655;42.590;23.364;2023-07-20T10:50:42;14.40;;;4.70;;
71806;SDS011;59655;42.590;23.364;2023-07-20T10:53:15;11.75;;;4.30;;
71806;SDS011;59655;42.590;23.364;2023-07-20T10:55:42;17.38;;;4.80;;
71806;SDS011;59655;42.590;23.364;2023-07-20T10:58:09;18.73;;;5.38;;
71806;SDS011;59655;42.590;23.364;2023-07-20T11:00:57;21.98;;;5.20;;
71806;SDS011;59655;42.590;23.364;2023-07-20T11:03:27;16.33;;;5.20;;
71806;SDS011;59655;42.590;23.364;2023-07-20T11:05:54;21.67;;;5.25;;
71806;SDS011;59655;42.590;23.364;2023-07-20T11:08:41;21.13;;;5.15;;
71806;SDS011;59655;42.590;23.364;2023-07-20T11:11:23;18.83;;;5.38;;
71806;SDS011;59655;42.590;23.364;2023-07-20T11:13:56;20.27;;;5.43;;
71806;SDS011;59655;42.590;23.364;2023-07-20T11:19:20;16.42;;;5.20;;
71806;SDS011;59655;42.590;23.364;2023-07-20T11:21:50;18.42;;;5.30;;
71806;SDS011;59655;42.590;23.364;2023-07-20T11:26:53;21.65;;;5.63;;
71806;SDS011;59655;42.590;23.364;2023-07-20T11:29:19;24.38;;;6.40;;
71806;SDS011;59655;42.590;23.364;2023-07-20T11:31:47;28.00;;;7.53;;
71806;SDS011;59655;42.590;23.364;2023-07-20T11:34:14;24.52;;;8.02;;
71806;SDS011;59655;42.590;23.364;2023-07-20T11:39:10;21.63;;;6.38;;
71806;SDS011;59655;42.590;23.364;2023-07-20T11:41:39;21.90;;;6.88;;
71806;SDS011;59655;42.590;23.364;2023-07-20T11:44:10;21.20;;;7.57;;
71806;SDS011;59655;42.590;23.364;2023-07-20T11:46:41;28.83;;;8.23;;
71806;SDS011;59655;42.590;23.364;2023-07-20T11:49:10;24.65;;;8.18;;
71806;SDS011;59655;42.590;23.364;2023-07-20T11:51:36;24.92;;;7.63;;
71806;SDS011;59655;42.590;23.364;2023-07-20T11:54:03;28.55;;;8.48;;
71806;SDS011;59655;42.590;23.364;2023-07-20T11:56:30;19.27;;;6.60;;
71806;SDS011;59655;42.590;23.364;2023-07-20T11:58:56;19.95;;;7.13;;
71806;SDS011;59655;42.590;23.364;2023-07-20T12:01:24;23.95;;;8.05;;
71806;SDS011;59655;42.590;23.364;2023-07-20T12:03:54;20.92;;;8.65;;
71806;SDS011;59655;42.590;23.364;2023-07-20T12:06:24;21.92;;;8.25;;
71806;SDS011;59655;42.590;23.364;2023-07-20T12:08:52;26.13;;;9.05;;
71806;SDS011;59655;42.590;23.364;2023-07-20T12:11:34;25.95;;;9.07;;
71806;SDS011;59655;42.590;23.364;2023-07-20T12:13:59;25.77;;;9.50;;
71806;SDS011;59655;42.590;23.364;2023-07-20T12:16:28;20.35;;;9.57;;
71806;SDS011;59655;42.590;23.364;2023-07-20T12:19:07;24.60;;;9.82;;
71806;SDS011;59655;42.590;23.364;2023-07-20T12:21:34;26.42;;;10.38;;
71806;SDS011;59655;42.590;23.364;2023-07-20T12:24:05;29.48;;;9.70;;
71806;SDS011;59655;42.590;23.364;2023-07-20T12:26:31;29.20;;;10.15;;
71806;SDS011;59655;42.590;23.364;2023-07-20T12:28:57;28.35;;;10.05;;
71806;SDS011;59655;42.590;23.364;2023-07-20T12:31:23;23.55;;;9.82;;
71806;SDS011;59655;42.590;23.364;2023-07-20T12:33:52;25.63;;;8.60;;
71806;SDS011;59655;42.590;23.364;2023-07-20T12:36:20;19.88;;;8.50;;
71806;SDS011;59655;42.590;23.364;2023-07-20T12:38:45;19.88;;;8.15;;
71806;SDS011;59655;42.590;23.364;2023-07-20T12:41:11;19.70;;;7.38;;
71806;SDS011;59655;42.590;23.364;2023-07-20T12:43:38;19.25;;;7.80;;
71806;SDS011;59655;42.590;23.364;2023-07-20T12:46:05;18.02;;;6.78;;
71806;SDS011;59655;42.590;23.364;2023-07-20T12:48:30;20.45;;;6.63;;
71806;SDS011;59655;42.590;23.364;2023-07-20T12:50:56;17.52;;;6.15;;
71806;SDS011;59655;42.590;23.364;2023-07-20T12:53:21;21.55;;;5.82;;
71806;SDS011;59655;42.590;23.364;2023-07-20T12:55:47;15.60;;;5.72;;
71806;SDS011;59655;42.590;23.364;2023-07-20T12:58:12;16.45;;;5.97;;
71806;SDS011;59655;42.590;23.364;2023-07-20T13:00:38;18.77;;;6.55;;
71806;SDS011;59655;42.590;23.364;2023-07-20T13:03:04;17.10;;;5.20;;
71806;SDS011;59655;42.590;23.364;2023-07-20T13:05:30;16.27;;;6.72;;
71806;SDS011;59655;42.590;23.364;2023-07-20T13:07:56;17.98;;;5.75;;
71806;SDS011;59655;42.590;23.364;2023-07-20T13:10:23;17.35;;;6.10;;
71806;SDS011;59655;42.590;23.364;2023-07-20T13:12:49;17.50;;;6.05;;
71806;SDS011;59655;42.590;23.364;2023-07-20T13:15:14;17.02;;;5.85;;
71806;SDS011;59655;42.590;23.364;2023-07-20T13:17:40;19.50;;;5.30;;
71806;SDS011;59655;42.590;23.364;2023-07-20T13:20:06;21.30;;;5.90;;
71806;SDS011;59655;42.590;23.364;2023-07-20T13:22:35;18.05;;;5.45;;
71806;SDS011;59655;42.590;23.364;2023-07-20T13:25:00;15.20;;;5.30;;
71806;SDS011;59655;42.590;23.364;2023-07-20T13:27:26;17.27;;;5.90;;
71806;SDS011;59655;42.590;23.364;2023-07-20T13:29:51;22.20;;;6.20;;
71806;SDS011;59655;42.590;23.364;2023-07-20T13:32:17;14.07;;;5.75;;
71806;SDS011;59655;42.590;23.364;2023-07-20T13:34:43;18.75;;;6.05;;
71806;SDS011;59655;42.590;23.364;2023-07-20T13:37:09;20.40;;;6.72;;
71806;SDS011;59655;42.590;23.364;2023-07-20T13:39:34;19.60;;;6.20;;
71806;SDS011;59655;42.590;23.364;2023-07-20T13:42:00;15.18;;;6.65;;
71806;SDS011;59655;42.590;23.364;2023-07-20T13:44:28;21.20;;;6.25;;
71806;SDS011;59655;42.590;23.364;2023-07-20T13:46:54;20.05;;;6.47;;
71806;SDS011;59655;42.590;23.364;2023-07-20T13:49:19;15.55;;;5.55;;
71806;SDS011;59655;42.590;23.364;2023-07-20T13:51:45;16.42;;;5.13;;
71806;SDS011;59655;42.590;23.364;2023-07-20T13:54:10;14.50;;;5.10;;
71806;SDS011;59655;42.590;23.364;2023-07-20T13:56:37;15.77;;;5.40;;
71806;SDS011;59655;42.590;23.364;2023-07-20T13:59:02;22.02;;;5.55;;
71806;SDS011;59655;42.590;23.364;2023-07-20T14:01:28;14.32;;;5.00;;
71806;SDS011;59655;42.590;23.364;2023-07-20T14:03:55;21.92;;;5.35;;
71806;SDS011;59655;42.590;23.364;2023-07-20T14:06:21;17.90;;;5.57;;
71806;SDS011;59655;42.590;23.364;2023-07-20T14:08:46;17.60;;;5.47;;
71806;SDS011;59655;42.590;23.364;2023-07-20T14:11:12;18.02;;;5.05;;
71806;SDS011;59655;42.590;23.364;2023-07-20T14:13:38;17.40;;;4.40;;
71806;SDS011;59655;42.590;23.364;2023-07-20T14:16:04;18.50;;;5.05;;
71806;SDS011;59655;42.590;23.364;2023-07-20T14:18:30;14.38;;;4.32;;
71806;SDS011;59655;42.590;23.364;2023-07-20T14:20:55;19.35;;;4.90;;
71806;SDS011;59655;42.590;23.364;2023-07-20T14:23:21;19.20;;;4.63;;
71806;SDS011;59655;42.590;23.364;2023-07-20T14:25:46;14.38;;;4.40;;
71806;SDS011;59655;42.590;23.364;2023-07-20T14:28:12;16.25;;;4.68;;
71806;SDS011;59655;42.590;23.364;2023-07-20T14:30:38;14.18;;;4.30;;
71806;SDS011;59655;42.590;23.364;2023-07-20T14:33:03;13.32;;;4.68;;
71806;SDS011;59655;42.590;23.364;2023-07-20T14:35:28;14.98;;;4.35;;
71806;SDS011;59655;42.590;23.364;2023-07-20T14:37:54;13.15;;;3.70;;
71806;SDS011;59655;42.590;23.364;2023-07-20T14:40:19;19.08;;;4.70;;
71806;SDS011;59655;42.590;23.364;2023-07-20T14:42:44;12.10;;;4.22;;
71806;SDS011;59655;42.590;23.364;2023-07-20T14:45:10;14.98;;;3.92;;